createdAt,value
2023-05-12T00:01:37.692Z,95304.66
2023-05-12T00:04:40.896Z,95303.84
2023-05-12T00:07:45.438Z,95307.38
2023-05-12T00:10:48.599Z,95300.16
2023-05-12T00:13:51.755Z,95313.25
2023-05-12T00:16:54.974Z,95291.97
2023-05-12T00:19:58.175Z,95303.63
2023-05-12T00:23:02.613Z,95306.63
2023-05-12T00:26:05.821Z,95294.00
2023-05-12T00:29:08.858Z,95286.19
2023-05-12T00:32:12.007Z,95303.94
2023-05-12T00:35:16.106Z,95299.53
2023-05-12T00:38:20.598Z,95305.03
2023-05-12T00:41:23.602Z,95304.88
2023-05-12T00:44:26.895Z,95305.53
2023-05-12T00:47:30.503Z,95303.00
2023-05-12T00:50:33.650Z,95311.03
2023-05-12T00:53:48.390Z,95306.91
2023-05-12T00:56:53.075Z,95312.13
2023-05-12T00:59:56.532Z,95316.84
2023-05-12T01:02:59.795Z,95316.38
2023-05-12T01:06:14.139Z,95324.84
2023-05-12T01:09:19.263Z,95322.69
2023-05-12T01:12:22.895Z,95318.69
2023-05-12T01:15:26.222Z,95316.53
2023-05-12T01:18:30.254Z,95320.44
2023-05-12T01:21:33.390Z,95321.88
2023-05-12T01:24:44.130Z,95318.09
2023-05-12T01:27:49.736Z,95322.69
2023-05-12T01:30:53.094Z,95323.72
2023-05-12T01:33:56.217Z,95317.31
2023-05-12T01:36:59.325Z,95321.25
2023-05-12T01:40:02.582Z,95325.69
2023-05-12T01:43:07.132Z,95328.03
2023-05-12T01:46:11.042Z,95317.31
2023-05-12T01:49:14.336Z,95319.16
2023-05-12T01:52:17.413Z,95321.84
2023-05-12T01:55:20.599Z,95322.69
2023-05-12T01:58:25.195Z,95325.16
2023-05-12T02:01:28.890Z,95324.50
2023-05-12T02:04:32.169Z,95320.25
2023-05-12T02:07:35.223Z,95320.09
2023-05-12T02:10:38.289Z,95332.22
2023-05-12T02:13:44.558Z,95323.09
2023-05-12T02:16:50.941Z,95327.16
2023-05-12T02:19:54.039Z,95330.97
2023-05-12T02:22:57.379Z,95319.59
2023-05-12T02:26:00.469Z,95318.78
2023-05-12T02:29:05.020Z,95323.53
2023-05-12T02:32:08.688Z,95321.16
2023-05-12T02:35:12.171Z,95312.31
2023-05-12T02:38:15.274Z,95322.91
2023-05-12T02:41:18.390Z,95323.44
2023-05-12T02:44:22.876Z,95315.22
2023-05-12T02:47:26.051Z,95324.50
2023-05-12T02:50:29.204Z,95317.41
2023-05-12T02:53:32.367Z,95322.59
2023-05-12T02:56:36.279Z,95322.91
2023-05-12T02:59:40.784Z,95322.78
2023-05-12T03:02:44.040Z,95312.31
2023-05-12T03:05:48.734Z,95314.53
2023-05-12T03:08:51.821Z,95318.47
2023-05-12T03:11:54.913Z,95311.09
2023-05-12T03:14:59.486Z,95322.09
2023-05-12T03:18:02.570Z,95325.88
2023-05-12T03:21:06.429Z,95331.75
2023-05-12T03:24:10.092Z,95325.72
2023-05-12T03:27:13.167Z,95325.72
2023-05-12T03:30:17.967Z,95326.91
2023-05-12T03:33:21.375Z,95325.31
2023-05-12T03:36:24.502Z,95335.75
2023-05-12T03:39:27.599Z,95343.03
2023-05-12T03:42:30.603Z,95335.81
2023-05-12T03:45:35.119Z,95340.22
2023-05-12T03:48:38.233Z,95337.69
2023-05-12T03:51:41.332Z,95342.38
2023-05-12T03:54:44.441Z,95338.06
2023-05-12T03:57:49.335Z,95333.13
2023-05-12T04:00:53.977Z,95347.03
2023-05-12T04:03:57.119Z,95337.75
2023-05-12T04:07:01.255Z,95339.66
2023-05-12T04:10:04.461Z,95343.84
2023-05-12T04:13:08.243Z,95350.97
2023-05-12T04:16:12.771Z,95350.91
2023-05-12T04:19:15.803Z,95347.53
2023-05-12T04:22:18.845Z,95355.53
2023-05-12T04:25:22.132Z,95356.19
2023-05-12T04:28:25.205Z,95343.66
2023-05-12T04:31:29.894Z,95347.41
2023-05-12T04:34:33.104Z,95349.75
2023-05-12T04:37:36.226Z,95344.13
2023-05-12T04:40:39.256Z,95348.06
2023-05-12T04:46:49.853Z,95347.09
2023-05-12T04:49:52.954Z,95339.69
2023-05-12T04:52:56.036Z,95347.09
2023-05-12T04:55:59.057Z,95348.50
2023-05-12T04:59:02.257Z,95351.94
2023-05-12T05:02:07.252Z,95342.88
2023-05-12T05:05:11.094Z,95357.69
2023-05-12T05:08:14.129Z,95353.44
2023-05-12T05:11:17.213Z,95356.69
2023-05-12T05:14:20.258Z,95352.75
2023-05-12T05:17:24.703Z,95358.56
2023-05-12T05:20:29.315Z,95359.16
2023-05-12T05:23:32.566Z,95359.47
2023-05-12T05:26:35.904Z,95355.22
2023-05-12T05:29:38.948Z,95351.41
2023-05-12T05:32:43.493Z,95365.41
2023-05-12T05:35:46.716Z,95361.75
2023-05-12T05:38:49.787Z,95365.22
2023-05-12T05:41:52.774Z,95363.94
2023-05-12T05:44:56.392Z,95365.59
2023-05-12T05:48:00.878Z,95368.25
2023-05-12T05:51:05.049Z,95372.50
2023-05-12T05:54:08.049Z,95369.94
2023-05-12T05:57:11.106Z,95373.88
2023-05-12T06:00:15.527Z,95371.81
2023-05-12T06:03:20.117Z,95376.34
2023-05-12T06:06:23.394Z,95379.13
2023-05-12T06:09:26.770Z,95371.63
2023-05-12T06:12:29.884Z,95373.31
2023-05-12T06:15:32.939Z,95372.28
2023-05-12T06:18:38.342Z,95376.28
2023-05-12T06:21:41.718Z,95377.81
2023-05-12T06:24:44.743Z,95379.38
2023-05-12T06:27:47.884Z,95378.97
2023-05-12T06:30:51.517Z,95384.81
2023-05-12T06:33:55.966Z,95385.44
2023-05-12T06:36:59.008Z,95382.41
2023-05-12T06:40:02.254Z,95394.44
2023-05-12T06:43:05.794Z,95389.53
2023-05-12T06:46:08.897Z,95396.91
2023-05-12T06:49:13.383Z,95399.56
2023-05-12T06:52:16.855Z,95404.13
2023-05-12T06:55:20.834Z,95408.34
2023-05-12T06:58:24.159Z,95406.19
2023-05-12T07:01:27.209Z,95394.34
2023-05-12T07:04:31.705Z,95392.97
2023-05-12T07:07:35.751Z,95399.97
2023-05-12T07:10:40.146Z,95399.69
2023-05-12T07:13:44.994Z,95395.72
2023-05-12T07:16:47.995Z,95401.94
2023-05-12T07:19:52.878Z,95402.72
2023-05-12T07:22:56.677Z,95408.56
2023-05-12T07:26:00.343Z,95406.78
2023-05-12T07:29:04.321Z,95402.94
2023-05-12T07:32:07.642Z,95406.78
2023-05-12T07:35:12.615Z,95399.28
2023-05-12T07:38:15.646Z,95404.41
2023-05-12T07:41:18.912Z,95406.00
2023-05-12T07:44:22.397Z,95409.94
2023-05-12T07:47:25.439Z,95412.69
2023-05-12T07:50:29.981Z,95407.38
2023-05-12T07:53:33.013Z,95394.34
2023-05-12T07:56:36.293Z,95407.06
2023-05-12T07:59:39.322Z,95408.16
2023-05-12T08:02:43.362Z,95407.38
2023-05-12T08:05:48.071Z,95396.22
2023-05-12T08:08:51.205Z,95388.59
2023-05-12T08:11:54.552Z,95384.47
2023-05-12T08:14:57.820Z,95397.91
2023-05-12T08:18:01.009Z,95399.78
2023-05-12T08:21:06.042Z,95406.94
2023-05-12T08:24:09.388Z,95398.47
2023-05-12T08:27:12.505Z,95397.38
2023-05-12T08:30:16.012Z,95399.47
2023-05-12T08:33:19.169Z,95397.91
2023-05-12T08:36:23.695Z,95406.88
2023-05-12T08:39:30.990Z,95389.63
2023-05-12T08:42:42.742Z,95397.50
2023-05-12T08:45:47.031Z,95397.50
2023-05-12T08:48:53.439Z,95404.13
2023-05-12T08:52:01.002Z,95393.75
2023-05-12T08:55:05.939Z,95393.75
2023-05-12T08:58:09.785Z,95392.97
2023-05-12T09:01:14.762Z,95393.25
2023-05-12T09:04:18.435Z,95388.72
2023-05-12T09:07:24.553Z,95400.47
2023-05-12T09:13:41.136Z,95381.34
2023-05-12T09:16:49.491Z,95377.38
2023-05-12T09:19:52.651Z,95377.88
2023-05-12T09:22:58.353Z,95375.81
2023-05-12T09:26:02.316Z,95375.28
2023-05-12T09:29:08.490Z,95384.06
2023-05-12T09:32:11.894Z,95366.13
2023-05-12T09:35:15.084Z,95374.19
2023-05-12T09:38:19.560Z,95369.47
2023-05-12T09:41:24.466Z,95368.38
2023-05-12T09:44:29.132Z,95372.31
2023-05-12T09:47:36.907Z,95370.47
2023-05-12T09:50:48.565Z,95379.25
2023-05-12T09:53:53.462Z,95378.19
2023-05-12T09:56:59.552Z,95373.63
2023-05-12T10:00:06.092Z,95370.19
2023-05-12T10:03:17.174Z,95361.78
2023-05-12T10:06:23.930Z,95363.78
2023-05-12T10:09:34.080Z,95360.81
2023-05-12T10:12:37.450Z,95354.69
2023-05-12T10:15:41.383Z,95354.69
2023-05-12T10:18:45.688Z,95349.69
2023-05-12T10:21:49.063Z,95350.75
2023-05-12T10:24:55.845Z,95344.91
2023-05-12T10:28:00.800Z,95347.50
2023-05-12T10:31:06.703Z,95348.28
2023-05-12T10:34:18.221Z,95346.13
2023-05-12T10:37:24.432Z,95345.81
2023-05-12T10:40:29.240Z,95345.03
2023-05-12T10:43:40.624Z,95339.72
2023-05-12T10:46:43.841Z,95338.72
2023-05-12T10:49:47.071Z,95343.47
2023-05-12T10:52:55.089Z,95333.91
2023-05-12T10:56:00.791Z,95338.91
2023-05-12T10:59:14.531Z,95332.63
2023-05-12T11:02:21.226Z,95339.72
2023-05-12T11:05:35.480Z,95350.34
2023-05-12T11:08:40.019Z,95338.25
2023-05-12T11:11:45.700Z,95348.00
2023-05-12T11:14:49.143Z,95351.75
2023-05-12T11:17:52.530Z,95345.94
2023-05-12T11:20:55.697Z,95351.75
2023-05-12T11:23:59.284Z,95349.69
2023-05-12T11:27:04.767Z,95354.69
2023-05-12T11:30:11.202Z,95347.50
2023-05-12T11:33:14.734Z,95349.19
2023-05-12T11:36:21.751Z,95349.97
2023-05-12T11:39:25.966Z,95342.06
2023-05-12T11:42:30.341Z,95360.63
2023-05-12T11:45:34.216Z,95359.31
2023-05-12T11:48:37.366Z,95350.53
2023-05-12T11:51:44.029Z,95355.06
2023-05-12T11:54:50.842Z,95353.78
2023-05-12T11:58:00.485Z,95355.06
2023-05-12T12:01:11.348Z,95352.72
2023-05-12T12:04:16.786Z,95349.56
2023-05-12T12:07:30.076Z,95350.13
2023-05-12T12:10:33.152Z,95346.19
2023-05-12T12:13:37.594Z,95348.38
2023-05-12T12:16:40.664Z,95365.03
2023-05-12T12:19:43.827Z,95365.31
2023-05-12T12:22:46.966Z,95359.22
2023-05-12T12:25:50.030Z,95358.41
2023-05-12T12:28:54.446Z,95356.84
2023-05-12T12:31:57.532Z,95352.13
2023-05-12T12:35:03.023Z,95351.81
2023-05-12T12:38:06.211Z,95354.78
2023-05-12T12:41:09.406Z,95361.19
2023-05-12T12:44:13.798Z,95359.56
2023-05-12T12:47:17.170Z,95360.66
2023-05-12T12:50:20.876Z,95354.66
2023-05-12T12:53:24.010Z,95358.59
2023-05-12T12:56:27.116Z,95359.38
2023-05-12T12:59:31.533Z,95350.50
2023-05-12T13:02:35.026Z,95352.28
2023-05-12T13:05:38.741Z,95350.69
2023-05-12T13:08:42.496Z,95349.13
2023-05-12T13:11:46.750Z,95344.88
2023-05-12T13:14:51.258Z,95341.44
2023-05-12T13:17:54.413Z,95339.84
2023-05-12T13:20:57.670Z,95344.38
2023-05-12T13:24:00.721Z,95334.53
2023-05-12T13:27:08.149Z,95331.09
2023-05-12T13:30:13.767Z,95328.72
2023-05-12T13:33:17.164Z,95319.94
2023-05-12T13:36:20.315Z,95330.59
2023-05-12T13:39:23.325Z,95323.38
2023-05-12T13:42:26.979Z,95316.75
2023-05-12T13:45:31.575Z,95314.09
2023-05-12T13:48:34.599Z,95317.06
2023-05-12T13:51:37.560Z,95312.53
2023-05-12T13:54:40.622Z,95306.50
2023-05-12T13:57:43.726Z,95320.00
2023-05-12T14:00:48.767Z,95317.66
2023-05-12T14:03:51.817Z,95322.97
2023-05-12T14:06:55.531Z,95324.53
2023-05-12T14:09:58.653Z,95319.50
2023-05-12T14:13:01.733Z,95326.72
2023-05-12T14:16:07.265Z,95321.97
2023-05-12T14:19:10.417Z,95324.34
2023-05-12T14:22:25.667Z,95323.56
2023-05-12T14:25:30.833Z,95323.06
2023-05-12T14:28:34.365Z,95324.94
2023-05-12T14:31:39.007Z,95320.97
2023-05-12T14:34:42.125Z,95317.50
2023-05-12T14:37:45.164Z,95315.38
2023-05-12T14:40:49.418Z,95310.06
2023-05-12T14:43:52.527Z,95307.44
2023-05-12T14:46:57.066Z,95308.19
2023-05-12T14:50:00.140Z,95326.00
2023-05-12T14:53:03.193Z,95319.09
2023-05-12T14:56:06.567Z,95314.59
2023-05-12T14:59:09.734Z,95313.75
2023-05-12T15:02:14.156Z,95316.72
2023-05-12T15:05:17.406Z,95320.47
2023-05-12T15:08:21.716Z,95314.00
2023-05-12T15:11:25.285Z,95311.41
2023-05-12T15:14:28.771Z,95305.53
2023-05-12T15:17:33.409Z,95303.34
2023-05-12T15:20:36.542Z,95294.09
2023-05-12T15:23:41.643Z,95290.03
2023-05-12T15:26:44.779Z,95293.50
2023-05-12T15:29:47.861Z,95282.84
2023-05-12T15:32:52.549Z,95287.38
2023-05-12T15:35:55.854Z,95286.09
2023-05-12T15:38:59.067Z,95292.72
2023-05-12T15:42:02.351Z,95288.75
2023-05-12T15:45:06.194Z,95280.81
2023-05-12T15:48:10.932Z,95286.78
2023-05-12T15:51:14.132Z,95287.03
2023-05-12T15:54:17.424Z,95293.06
2023-05-12T15:57:20.476Z,95291.19
2023-05-12T16:00:23.751Z,95287.53
2023-05-12T16:03:28.464Z,95286.28
2023-05-12T16:06:31.639Z,95295.19
2023-05-12T16:09:34.725Z,95298.53
2023-05-12T16:12:37.851Z,95290.28
2023-05-12T16:15:40.938Z,95284.16
2023-05-12T16:18:45.572Z,95293.06
2023-05-12T16:21:48.645Z,95290.91
2023-05-12T16:24:51.789Z,95292.47
2023-05-12T16:27:54.902Z,95300.75
2023-05-12T16:30:58.081Z,95304.22
2023-05-12T16:34:03.373Z,95310.91
2023-05-12T16:37:06.848Z,95321.25
2023-05-12T16:40:10.891Z,95319.94
2023-05-12T16:43:14.026Z,95320.47
2023-05-12T16:46:17.155Z,95320.47
2023-05-12T16:49:21.618Z,95323.13
2023-05-12T16:52:24.732Z,95333.47
2023-05-12T16:55:28.056Z,95334.84
2023-05-12T16:58:32.376Z,95329.09
2023-05-12T17:01:36.232Z,95340.16
2023-05-12T17:04:40.817Z,95340.97
2023-05-12T17:07:43.952Z,95336.97
2023-05-12T17:10:47.637Z,95339.81
2023-05-12T17:13:50.761Z,95331.03
2023-05-12T17:16:53.985Z,95338.63
2023-05-12T17:19:58.792Z,95335.19
2023-05-12T17:23:02.670Z,95334.41
2023-05-12T17:26:06.199Z,95331.25
2023-05-12T17:29:09.860Z,95342.38
2023-05-12T17:32:13.040Z,95346.63
2023-05-12T17:35:17.666Z,95350.84
2023-05-12T17:38:21.544Z,95356.69
2023-05-12T17:41:26.376Z,95361.16
2023-05-12T17:44:30.113Z,95361.44
2023-05-12T17:47:33.354Z,95371.19
2023-05-12T17:50:39.451Z,95366.97
2023-05-12T17:53:42.808Z,95365.69
2023-05-12T17:56:45.918Z,95384.81
2023-05-12T17:59:49.024Z,95386.38
2023-05-12T18:02:52.429Z,95385.59
2023-05-12T18:05:57.200Z,95385.09
2023-05-12T18:09:00.255Z,95371.84
2023-05-12T18:12:03.359Z,95386.97
2023-05-12T18:15:07.493Z,95384.06
2023-05-12T18:18:11.321Z,95404.72
2023-05-12T18:21:15.958Z,95402.84
2023-05-12T18:24:19.185Z,95410.25
2023-05-12T18:27:22.410Z,95401.91
2023-05-12T18:30:25.486Z,95411.69
2023-05-12T18:33:28.717Z,95399.47
2023-05-12T18:36:33.288Z,95420.94
2023-05-12T18:39:36.577Z,95415.81
2023-05-12T18:42:39.783Z,95417.16
2023-05-12T18:45:42.927Z,95417.53
2023-05-12T18:48:46.109Z,95425.25
2023-05-12T18:51:50.711Z,95414.22
2023-05-12T18:54:53.746Z,95428.59
2023-05-12T18:57:56.863Z,95431.56
2023-05-12T19:01:00.064Z,95440.03
2023-05-12T19:04:03.801Z,95443.59
2023-05-12T19:07:09.949Z,95439.72
2023-05-12T19:10:13.424Z,95447.16
2023-05-12T19:13:16.626Z,95441.81
2023-05-12T19:16:19.723Z,95444.50
2023-05-12T19:19:22.881Z,95445.44
2023-05-12T19:22:28.209Z,95445.09
2023-05-12T19:25:31.306Z,95456.75
2023-05-12T19:28:34.553Z,95455.81
2023-05-12T19:31:37.772Z,95451.41
2023-05-12T19:34:41.185Z,95459.63
2023-05-12T19:37:45.768Z,95459.44
2023-05-12T19:40:48.885Z,95454.88
2023-05-12T19:43:52.000Z,95469.72
2023-05-12T19:46:56.750Z,95469.38
2023-05-12T19:49:59.930Z,95469.22
2023-05-12T19:53:04.540Z,95460.72
2023-05-12T19:56:08.163Z,95468.44
2023-05-12T19:59:11.325Z,95468.25
2023-05-12T20:02:18.036Z,95466.88
2023-05-12T20:05:21.521Z,95466.56
2023-05-12T20:08:26.201Z,95461.22
2023-05-12T20:11:29.450Z,95463.25
2023-05-12T20:14:32.918Z,95462.94
2023-05-12T20:17:36.609Z,95460.41
2023-05-12T20:20:39.727Z,95471.75
2023-05-12T20:23:44.501Z,95477.91
2023-05-12T20:26:47.565Z,95480.28
2023-05-12T20:29:50.643Z,95479.78
2023-05-12T20:32:53.819Z,95473.34
2023-05-12T20:35:56.994Z,95467.81
2023-05-12T20:39:01.497Z,95467.34
2023-05-12T20:42:05.065Z,95455.81
2023-05-12T20:45:09.259Z,95468.91
2023-05-12T20:48:12.397Z,95457.69
2023-05-12T20:51:15.888Z,95466.78
2023-05-12T20:54:20.385Z,95462.91
2023-05-12T20:57:23.457Z,95463.97
2023-05-12T21:00:26.613Z,95467.72
2023-05-12T21:03:29.713Z,95457.19
2023-05-12T21:06:33.920Z,95464.41
2023-05-12T21:09:38.599Z,95466.69
2023-05-12T21:12:41.772Z,95466.88
2023-05-12T21:15:45.197Z,95474.00
2023-05-12T21:18:48.371Z,95484.47
2023-05-12T21:21:51.437Z,95478.63
2023-05-12T21:24:55.848Z,95481.97
2023-05-12T21:27:58.888Z,95486.03
2023-05-12T21:31:01.938Z,95498.06
2023-05-12T21:34:04.953Z,95498.66
2023-05-12T21:37:08.002Z,95495.59
2023-05-12T21:40:13.562Z,95503.38
2023-05-12T21:43:16.620Z,95499.91
2023-05-12T21:46:19.748Z,95499.41
2023-05-12T21:49:22.970Z,95509.19
2023-05-12T21:52:26.294Z,95515.59
2023-05-12T21:55:30.819Z,95518.03
2023-05-12T21:58:33.845Z,95519.91
2023-05-12T22:01:37.080Z,95534.09
2023-05-12T22:04:40.532Z,95535.47
2023-05-12T22:07:43.563Z,95531.50
2023-05-12T22:10:48.136Z,95531.78
2023-05-12T22:13:51.437Z,95534.53
2023-05-12T22:16:54.829Z,95542.22
2023-05-12T22:19:58.018Z,95543.59
2023-05-12T22:23:01.162Z,95534.81
2023-05-12T22:26:05.790Z,95538.84
2023-05-12T22:29:08.837Z,95534.63
2023-05-12T22:32:11.926Z,95532.81
2023-05-12T22:35:15.240Z,95529.88
2023-05-12T22:38:18.298Z,95525.13
2023-05-12T22:41:22.791Z,95516.06
2023-05-12T22:44:25.898Z,95517.72
2023-05-12T22:47:29.059Z,95514.81
2023-05-12T22:50:32.265Z,95528.09
2023-05-12T22:53:36.843Z,95528.13
2023-05-12T22:56:41.339Z,95534.53
2023-05-12T22:59:44.471Z,95532.47
2023-05-12T23:02:47.629Z,95523.41
2023-05-12T23:05:50.835Z,95511.47
2023-05-12T23:08:53.960Z,95506.63
2023-05-12T23:11:58.570Z,95514.13
2023-05-12T23:15:01.681Z,95514.72
2023-05-12T23:18:05.222Z,95502.19
2023-05-12T23:21:08.473Z,95503.28
2023-05-12T23:24:11.608Z,95497.22
2023-05-12T23:27:16.180Z,95494.50
2023-05-12T23:30:19.424Z,95495.06
2023-05-12T23:33:22.759Z,95495.88
2023-05-12T23:36:25.971Z,95494.50
2023-05-12T23:39:29.178Z,95498.53
2023-05-12T23:42:33.645Z,95491.38
2023-05-12T23:45:36.815Z,95490.31
2023-05-12T23:48:39.976Z,95489.31
2023-05-12T23:51:43.309Z,95485.16
2023-05-12T23:54:46.417Z,95483.50
2023-05-12T23:57:51.142Z,95481.69
